createdAt,value
2024-01-18T00:00:43.998Z,51.40
2024-01-18T00:01:43.936Z,48.02
2024-01-18T00:02:43.924Z,39.96
2024-01-18T00:03:44.029Z,37.54
2024-01-18T00:04:43.965Z,37.71
2024-01-18T00:05:43.930Z,39.16
2024-01-18T00:06:43.988Z,36.90
2024-01-18T00:07:43.873Z,37.71
2024-01-18T00:08:43.887Z,37.87
2024-01-18T00:09:43.857Z,36.74
2024-01-18T00:10:43.846Z,37.38
2024-01-18T00:11:43.830Z,37.87
2024-01-18T00:12:43.836Z,39.96
2024-01-18T00:13:43.826Z,37.06
2024-01-18T00:14:43.804Z,37.54
2024-01-18T00:15:43.928Z,37.71
2024-01-18T00:16:44.387Z,38.83
2024-01-18T00:17:43.822Z,40.61
2024-01-18T00:18:43.902Z,39.80
2024-01-18T00:19:43.857Z,42.22
2024-01-18T00:20:43.743Z,37.54
2024-01-18T00:21:43.734Z,37.22
2024-01-18T00:22:43.739Z,37.71
2024-01-18T00:23:43.712Z,37.06
2024-01-18T00:24:43.699Z,39.64
2024-01-18T00:25:43.701Z,39.32
2024-01-18T00:26:43.695Z,39.96
2024-01-18T00:27:43.677Z,38.19
2024-01-18T00:28:43.674Z,37.54
2024-01-18T00:29:43.647Z,37.38
2024-01-18T00:30:43.693Z,37.71
2024-01-18T00:31:43.637Z,37.22
2024-01-18T00:32:43.664Z,37.87
2024-01-18T00:33:43.644Z,41.25
2024-01-18T00:34:43.603Z,44.15
2024-01-18T00:35:44.643Z,38.51
2024-01-18T00:36:43.732Z,38.83
2024-01-18T00:37:43.563Z,37.71
2024-01-18T00:38:43.554Z,36.90
2024-01-18T00:39:43.582Z,37.06
2024-01-18T00:40:43.546Z,38.35
2024-01-18T00:41:43.536Z,40.77
2024-01-18T00:42:43.610Z,38.51
2024-01-18T00:43:43.502Z,37.06
2024-01-18T00:44:43.498Z,37.38
2024-01-18T00:45:43.573Z,37.38
2024-01-18T00:46:43.481Z,36.58
2024-01-18T00:47:43.511Z,41.73
2024-01-18T00:48:43.598Z,43.18
2024-01-18T00:49:43.480Z,38.67
2024-01-18T00:50:43.432Z,38.19
2024-01-18T00:51:43.462Z,37.38
2024-01-18T00:52:43.405Z,36.90
2024-01-18T00:53:43.397Z,36.74
2024-01-18T00:54:43.380Z,37.54
2024-01-18T00:55:43.417Z,37.06
2024-01-18T00:56:43.357Z,37.06
2024-01-18T00:57:43.346Z,37.54
2024-01-18T00:58:43.342Z,38.19
2024-01-18T00:59:43.342Z,38.99
2024-01-18T01:00:43.392Z,42.22
2024-01-18T01:01:43.314Z,37.54
2024-01-18T01:02:43.322Z,37.54
2024-01-18T01:03:43.303Z,40.28
2024-01-18T01:04:43.343Z,37.22
2024-01-18T01:05:43.293Z,37.22
2024-01-18T01:06:43.274Z,37.38
2024-01-18T01:07:43.282Z,38.83
2024-01-18T01:08:43.234Z,38.67
2024-01-18T01:09:43.276Z,38.03
2024-01-18T01:10:43.218Z,36.58
2024-01-18T01:11:43.212Z,37.06
2024-01-18T01:12:43.193Z,36.90
2024-01-18T01:13:43.197Z,38.83
2024-01-18T01:14:43.206Z,37.38
2024-01-18T01:15:43.193Z,38.35
2024-01-18T01:16:43.153Z,38.35
2024-01-18T01:17:43.143Z,38.03
2024-01-18T01:18:43.168Z,38.19
2024-01-18T01:19:43.197Z,38.67
2024-01-18T01:20:43.112Z,39.16
2024-01-18T01:21:43.116Z,38.99
2024-01-18T01:22:43.089Z,37.87
2024-01-18T01:23:43.347Z,38.51
2024-01-18T01:24:43.103Z,37.38
2024-01-18T01:25:43.055Z,37.71
2024-01-18T01:26:43.041Z,37.87
2024-01-18T01:27:43.031Z,38.19
2024-01-18T01:28:43.041Z,37.22
2024-01-18T01:29:43.014Z,38.35
2024-01-18T01:30:43.101Z,44.63
2024-01-18T01:31:42.999Z,44.96
2024-01-18T01:32:43.045Z,37.71
2024-01-18T01:33:43.079Z,43.18
2024-01-18T01:34:43.013Z,37.54
2024-01-18T01:35:42.950Z,37.54
2024-01-18T01:36:42.937Z,38.03
2024-01-18T01:37:42.946Z,37.22
2024-01-18T01:38:42.931Z,39.64
2024-01-18T01:39:42.914Z,40.44
2024-01-18T01:40:42.903Z,37.38
2024-01-18T01:41:42.893Z,37.06
2024-01-18T01:42:42.956Z,36.90
2024-01-18T01:43:42.869Z,38.03
2024-01-18T01:44:42.871Z,38.03
2024-01-18T01:45:42.878Z,37.38
2024-01-18T01:46:42.841Z,37.71
2024-01-18T01:47:42.869Z,38.03
2024-01-18T01:48:42.903Z,37.06
2024-01-18T01:49:42.890Z,37.38
2024-01-18T01:50:42.800Z,37.87
2024-01-18T01:51:42.849Z,37.22
2024-01-18T01:52:42.799Z,37.22
2024-01-18T01:53:42.766Z,38.03
2024-01-18T01:54:42.778Z,37.06
2024-01-18T01:55:42.744Z,37.22
2024-01-18T01:56:42.751Z,36.74
2024-01-18T01:57:42.822Z,37.38
2024-01-18T01:58:42.718Z,36.58
2024-01-18T01:59:42.702Z,37.38
2024-01-18T02:00:42.853Z,37.71
2024-01-18T02:01:42.699Z,37.71
2024-01-18T02:02:42.678Z,37.06
2024-01-18T02:03:42.722Z,37.71
2024-01-18T02:04:42.695Z,37.22
2024-01-18T02:05:42.676Z,38.35
2024-01-18T02:06:42.669Z,37.54
2024-01-18T02:07:42.644Z,37.87
2024-01-18T02:08:42.630Z,37.06
2024-01-18T02:09:42.735Z,53.50
2024-01-18T02:10:42.606Z,37.38
2024-01-18T02:11:42.596Z,37.54
2024-01-18T02:12:42.598Z,37.06
2024-01-18T02:13:42.558Z,39.16
2024-01-18T02:14:42.565Z,37.38
2024-01-18T02:15:42.610Z,36.90
2024-01-18T02:16:42.543Z,37.06
2024-01-18T02:17:42.563Z,36.90
2024-01-18T02:18:42.607Z,37.22
2024-01-18T02:19:42.547Z,37.38
2024-01-18T02:20:44.678Z,38.35
2024-01-18T02:21:42.489Z,39.32
2024-01-18T02:22:42.478Z,36.42
2024-01-18T02:23:42.466Z,44.63
2024-01-18T02:24:42.492Z,57.20
2024-01-18T02:25:42.435Z,36.90
2024-01-18T02:26:42.440Z,39.64
2024-01-18T02:27:42.476Z,37.71
2024-01-18T02:28:42.414Z,36.42
2024-01-18T02:29:42.412Z,36.74
2024-01-18T02:30:42.516Z,37.87
2024-01-18T02:31:42.384Z,37.54
2024-01-18T02:32:42.393Z,57.36
2024-01-18T02:33:42.424Z,53.01
2024-01-18T02:34:42.474Z,39.64
2024-01-18T02:35:42.353Z,37.87
2024-01-18T02:36:42.340Z,37.06
2024-01-18T02:37:42.308Z,37.38
2024-01-18T02:38:42.301Z,38.03
2024-01-18T02:39:42.353Z,37.22
2024-01-18T02:40:42.295Z,37.54
2024-01-18T02:41:42.466Z,37.06
2024-01-18T02:42:42.293Z,36.58
2024-01-18T02:43:42.312Z,36.25
2024-01-18T02:44:42.249Z,38.35
2024-01-18T02:45:42.376Z,38.83
2024-01-18T02:46:42.228Z,45.92
2024-01-18T02:47:42.254Z,36.58
2024-01-18T02:48:42.245Z,37.38
2024-01-18T02:49:42.304Z,39.48
2024-01-18T02:50:42.169Z,37.38
2024-01-18T02:51:42.211Z,35.93
2024-01-18T02:52:42.160Z,36.42
2024-01-18T02:53:42.148Z,37.54
2024-01-18T02:54:42.155Z,36.90
2024-01-18T02:55:42.122Z,36.58
2024-01-18T02:56:42.118Z,37.87
2024-01-18T02:57:42.106Z,38.03
2024-01-18T02:58:42.090Z,37.54
2024-01-18T02:59:42.101Z,36.90
2024-01-18T03:00:42.108Z,36.90
2024-01-18T03:01:42.058Z,42.38
2024-01-18T03:02:42.042Z,45.92
2024-01-18T03:03:42.080Z,61.23
2024-01-18T03:04:42.111Z,60.26
2024-01-18T03:05:42.018Z,47.86
2024-01-18T03:06:42.139Z,37.22
2024-01-18T03:07:42.022Z,37.54
2024-01-18T03:08:42.002Z,36.90
2024-01-18T03:09:42.135Z,36.90
2024-01-18T03:10:41.977Z,38.03
2024-01-18T03:11:41.964Z,38.99
2024-01-18T03:12:41.978Z,38.35
2024-01-18T03:13:41.947Z,37.38
2024-01-18T03:14:41.953Z,37.38
2024-01-18T03:15:42.031Z,49.47
2024-01-18T03:16:41.897Z,38.51
2024-01-18T03:17:41.925Z,38.99
2024-01-18T03:18:41.969Z,43.51
2024-01-18T03:19:41.883Z,37.22
2024-01-18T03:20:41.861Z,65.10
2024-01-18T03:21:41.909Z,38.03
2024-01-18T03:22:41.833Z,39.80
2024-01-18T03:23:41.844Z,47.37
2024-01-18T03:24:41.876Z,53.01
2024-01-18T03:25:41.803Z,38.03
2024-01-18T03:26:41.798Z,37.54
2024-01-18T03:27:41.818Z,36.90
2024-01-18T03:28:41.786Z,37.54
2024-01-18T03:29:41.794Z,37.22
2024-01-18T03:30:41.919Z,37.54
2024-01-18T03:31:41.746Z,48.66
2024-01-18T03:32:41.769Z,36.74
2024-01-18T03:33:41.794Z,36.58
2024-01-18T03:34:41.829Z,38.35
2024-01-18T03:35:41.703Z,37.06
2024-01-18T03:36:41.823Z,38.99
2024-01-18T03:37:41.689Z,37.87
2024-01-18T03:38:41.676Z,38.67
2024-01-18T03:39:41.697Z,38.83
2024-01-18T03:40:41.654Z,37.87
2024-01-18T03:41:41.641Z,38.03
2024-01-18T03:42:41.690Z,49.63
2024-01-18T03:43:41.633Z,37.54
2024-01-18T03:44:41.627Z,37.71
2024-01-18T03:45:41.705Z,37.38
2024-01-18T03:46:41.625Z,47.86
2024-01-18T03:47:42.226Z,37.38
2024-01-18T03:48:41.660Z,37.71
2024-01-18T03:49:41.605Z,39.16
2024-01-18T03:50:41.562Z,50.76
2024-01-18T03:51:41.631Z,38.51
2024-01-18T03:52:41.532Z,46.73
2024-01-18T03:53:41.517Z,38.03
2024-01-18T03:54:41.587Z,38.19
2024-01-18T03:55:41.511Z,37.38
2024-01-18T03:56:41.506Z,37.38
2024-01-18T03:57:41.653Z,38.03
2024-01-18T03:58:41.490Z,38.67
2024-01-18T03:59:41.456Z,49.79
2024-01-18T04:00:41.554Z,37.71
2024-01-18T04:01:41.525Z,40.77
2024-01-18T04:02:41.446Z,38.35
2024-01-18T04:03:41.482Z,55.43
2024-01-18T04:04:41.409Z,58.81
2024-01-18T04:05:41.451Z,55.59
2024-01-18T04:06:41.453Z,44.47
2024-01-18T04:07:41.376Z,46.89
2024-01-18T04:08:41.391Z,45.28
2024-01-18T04:09:41.364Z,37.87
2024-01-18T04:10:41.366Z,39.48
2024-01-18T04:11:41.346Z,48.66
2024-01-18T04:12:41.449Z,38.03
2024-01-18T04:13:41.337Z,37.54
2024-01-18T04:14:41.322Z,53.33
2024-01-18T04:15:41.377Z,49.47
2024-01-18T04:16:41.295Z,47.37
2024-01-18T04:17:41.312Z,49.79
2024-01-18T04:18:41.348Z,37.87
2024-01-18T04:19:41.476Z,38.35
2024-01-18T04:20:41.243Z,49.31
2024-01-18T04:21:41.327Z,50.11
2024-01-18T04:22:41.224Z,37.87
2024-01-18T04:23:41.213Z,49.15
2024-01-18T04:24:41.255Z,52.85
2024-01-18T04:25:41.185Z,38.19
2024-01-18T04:26:41.179Z,45.76
2024-01-18T04:27:41.244Z,48.18
2024-01-18T04:28:41.215Z,48.18
2024-01-18T04:29:41.163Z,52.21
2024-01-18T04:30:41.157Z,53.50
2024-01-18T04:31:41.130Z,41.73
2024-01-18T04:32:41.134Z,52.85
2024-01-18T04:33:41.138Z,42.38
2024-01-18T04:34:41.152Z,48.34
2024-01-18T04:35:41.083Z,54.14
2024-01-18T04:36:41.129Z,39.16
2024-01-18T04:37:41.083Z,51.24
2024-01-18T04:38:41.078Z,38.35
2024-01-18T04:39:41.110Z,53.33
2024-01-18T04:40:41.046Z,56.56
2024-01-18T04:41:41.029Z,47.37
2024-01-18T04:42:41.210Z,53.33
2024-01-18T04:43:41.022Z,50.92
2024-01-18T04:44:41.031Z,54.30
2024-01-18T04:45:41.091Z,48.34
2024-01-18T04:46:40.978Z,50.11
2024-01-18T04:47:40.993Z,54.46
2024-01-18T04:48:40.973Z,49.31
2024-01-18T04:49:40.981Z,52.53
2024-01-18T04:50:40.971Z,57.20
2024-01-18T04:51:41.001Z,55.91
2024-01-18T04:52:40.919Z,62.20
2024-01-18T04:53:40.941Z,47.53
2024-01-18T04:54:41.071Z,50.92
2024-01-18T04:55:40.885Z,49.15
2024-01-18T04:56:40.873Z,39.48
2024-01-18T04:57:40.912Z,37.38
2024-01-18T04:58:42.900Z,38.35
2024-01-18T04:59:40.839Z,53.50
2024-01-18T05:00:40.917Z,47.53
2024-01-18T05:01:41.062Z,50.27
2024-01-18T05:02:40.882Z,53.17
2024-01-18T05:03:40.888Z,50.92
2024-01-18T05:04:40.988Z,52.05
2024-01-18T05:05:40.817Z,46.08
2024-01-18T05:06:40.858Z,46.89
2024-01-18T05:07:40.879Z,38.83
2024-01-18T05:08:40.752Z,50.92
2024-01-18T05:09:40.809Z,46.73
2024-01-18T05:10:40.721Z,49.63
2024-01-18T05:11:40.717Z,39.16
2024-01-18T05:12:40.758Z,54.14
2024-01-18T05:13:40.688Z,39.16
2024-01-18T05:14:40.683Z,50.43
2024-01-18T05:15:40.700Z,51.08
2024-01-18T05:16:40.718Z,50.43
2024-01-18T05:17:40.675Z,38.51
2024-01-18T05:18:40.672Z,50.43
2024-01-18T05:19:40.693Z,41.57
2024-01-18T05:20:40.622Z,51.24
2024-01-18T05:21:40.683Z,49.79
2024-01-18T05:22:40.599Z,53.50
2024-01-18T05:23:40.587Z,53.98
2024-01-18T05:24:40.610Z,38.83
2024-01-18T05:25:40.559Z,48.50
2024-01-18T05:26:40.582Z,52.85
2024-01-18T05:27:40.668Z,39.80
2024-01-18T05:28:40.533Z,47.70
2024-01-18T05:29:40.520Z,46.89
2024-01-18T05:30:40.607Z,49.47
2024-01-18T05:31:40.514Z,56.72
2024-01-18T05:32:40.532Z,41.57
2024-01-18T05:33:40.606Z,43.99
2024-01-18T05:34:40.537Z,47.05
2024-01-18T05:35:40.480Z,47.37
2024-01-18T05:36:40.501Z,50.43
2024-01-18T05:37:40.445Z,48.50
2024-01-18T05:38:42.159Z,51.88
2024-01-18T05:39:40.542Z,52.53
2024-01-18T05:40:40.435Z,51.56
2024-01-18T05:41:40.401Z,50.43
2024-01-18T05:42:40.564Z,50.60
2024-01-18T05:43:40.384Z,53.01
2024-01-18T05:44:40.386Z,53.82
2024-01-18T05:45:40.451Z,51.56
2024-01-18T05:46:40.353Z,42.38
2024-01-18T05:47:40.379Z,52.05
2024-01-18T05:48:40.413Z,56.56
2024-01-18T05:49:40.354Z,46.57
2024-01-18T05:50:40.306Z,48.34
2024-01-18T05:51:43.854Z,42.06
2024-01-18T05:52:40.329Z,41.89
2024-01-18T05:53:40.289Z,53.01
2024-01-18T05:54:40.381Z,48.82
2024-01-18T05:55:40.261Z,48.02
2024-01-18T05:56:40.245Z,48.34
2024-01-18T05:57:40.506Z,47.53
2024-01-18T05:58:41.197Z,39.32
2024-01-18T05:59:40.239Z,51.88
2024-01-18T06:00:40.293Z,50.76
2024-01-18T06:01:40.212Z,46.89
2024-01-18T06:02:40.182Z,48.98
2024-01-18T06:03:40.202Z,56.40
2024-01-18T06:04:40.179Z,41.41
2024-01-18T06:05:40.147Z,39.32
2024-01-18T06:06:40.184Z,57.69
2024-01-18T06:07:40.188Z,51.24
2024-01-18T06:08:40.134Z,38.67
2024-01-18T06:09:40.219Z,50.60
2024-01-18T06:10:40.102Z,50.43
2024-01-18T06:11:40.079Z,38.83
2024-01-18T06:12:40.227Z,48.34
2024-01-18T06:13:40.083Z,55.59
2024-01-18T06:14:40.060Z,49.47
2024-01-18T06:15:40.094Z,55.11
2024-01-18T06:16:40.111Z,48.82
2024-01-18T06:17:40.104Z,51.40
2024-01-18T06:18:40.330Z,48.50
2024-01-18T06:19:40.148Z,53.01
2024-01-18T06:20:40.004Z,52.69
2024-01-18T06:21:40.034Z,50.11
2024-01-18T06:22:39.983Z,40.44
2024-01-18T06:23:39.950Z,52.53
2024-01-18T06:24:40.000Z,58.17
2024-01-18T06:25:39.964Z,47.86
2024-01-18T06:26:39.973Z,49.79
2024-01-18T06:27:40.050Z,41.89
2024-01-18T06:28:39.901Z,48.98
2024-01-18T06:29:40.009Z,45.12
2024-01-18T06:30:40.027Z,52.37
2024-01-18T06:31:39.944Z,47.70
2024-01-18T06:32:39.905Z,50.92
2024-01-18T06:33:39.928Z,48.82
2024-01-18T06:34:39.938Z,53.82
2024-01-18T06:35:39.831Z,42.22
2024-01-18T06:36:39.911Z,45.60
2024-01-18T06:37:39.811Z,48.50
2024-01-18T06:38:39.812Z,49.95
2024-01-18T06:39:39.843Z,39.48
2024-01-18T06:40:41.912Z,45.76
2024-01-18T06:41:39.785Z,48.18
2024-01-18T06:42:39.847Z,44.63
2024-01-18T06:43:39.766Z,50.43
2024-01-18T06:44:39.742Z,53.33
2024-01-18T06:45:39.779Z,41.89
2024-01-18T06:46:39.748Z,48.50
2024-01-18T06:47:39.777Z,46.89
2024-01-18T06:48:39.840Z,60.75
2024-01-18T06:49:39.731Z,48.34
2024-01-18T06:50:39.699Z,47.86
2024-01-18T06:51:39.697Z,55.59
2024-01-18T06:52:39.941Z,42.70
2024-01-18T06:53:39.648Z,47.21
2024-01-18T06:54:40.098Z,49.63
2024-01-18T06:55:39.643Z,49.79
2024-01-18T06:56:39.618Z,47.70
2024-01-18T06:57:39.647Z,55.59
2024-01-18T06:58:39.602Z,48.50
2024-01-18T06:59:39.600Z,52.85
2024-01-18T07:00:39.634Z,49.95
2024-01-18T07:01:39.610Z,47.70
2024-01-18T07:02:39.565Z,55.75
2024-01-18T07:03:39.618Z,44.96
2024-01-18T07:04:39.657Z,49.95
2024-01-18T07:05:39.532Z,39.96
2024-01-18T07:06:54.551Z,40.28
2024-01-18T07:07:39.544Z,40.61
2024-01-18T07:08:39.562Z,50.92
2024-01-18T07:09:39.565Z,46.08
2024-01-18T07:10:39.478Z,42.22
2024-01-18T07:11:39.474Z,45.92
2024-01-18T07:12:39.589Z,42.06
2024-01-18T07:13:39.605Z,47.05
2024-01-18T07:14:39.442Z,40.28
2024-01-18T07:15:39.552Z,44.96
2024-01-18T07:16:39.412Z,43.67
2024-01-18T07:17:39.438Z,48.34
2024-01-18T07:18:39.558Z,45.44
2024-01-18T07:19:40.815Z,44.96
2024-01-18T07:20:39.511Z,47.53
2024-01-18T07:21:39.376Z,57.20
2024-01-18T07:22:39.368Z,44.96
2024-01-18T07:23:39.364Z,46.41
2024-01-18T07:24:39.412Z,49.63
2024-01-18T07:25:39.347Z,43.02
2024-01-18T07:26:39.311Z,46.57
2024-01-18T07:27:39.361Z,46.08
2024-01-18T07:28:39.296Z,44.63
2024-01-18T07:29:39.284Z,51.24
2024-01-18T07:30:39.303Z,48.02
2024-01-18T07:31:39.313Z,50.76
2024-01-18T07:32:39.323Z,55.11
2024-01-18T07:33:39.393Z,45.92
2024-01-18T07:34:39.413Z,48.50
2024-01-18T07:35:39.217Z,53.50
2024-01-18T07:36:39.286Z,49.47
2024-01-18T07:37:39.208Z,49.95
2024-01-18T07:38:39.185Z,48.34
2024-01-18T07:39:39.252Z,50.27
2024-01-18T07:40:39.172Z,45.92
2024-01-18T07:41:39.172Z,48.18
2024-01-18T07:42:41.604Z,49.31
2024-01-18T07:43:39.134Z,45.92
2024-01-18T07:44:39.128Z,48.18
2024-01-18T07:45:39.195Z,51.24
2024-01-18T07:46:39.122Z,49.95
2024-01-18T07:47:39.125Z,49.95
2024-01-18T07:48:39.127Z,51.56
2024-01-18T07:49:39.149Z,49.47
2024-01-18T07:50:39.198Z,48.50
2024-01-18T07:51:39.166Z,45.28
2024-01-18T07:52:39.044Z,44.63
2024-01-18T07:53:39.049Z,45.12
2024-01-18T07:54:39.126Z,45.44
2024-01-18T07:55:39.060Z,45.44
2024-01-18T07:56:39.013Z,47.70
2024-01-18T07:57:40.249Z,58.17
2024-01-18T07:58:39.002Z,63.16
2024-01-18T07:59:38.990Z,54.79
2024-01-18T08:00:39.065Z,43.18
2024-01-18T08:01:40.382Z,62.52
2024-01-18T08:02:38.963Z,46.25
2024-01-18T08:03:38.999Z,43.34
2024-01-18T08:04:38.988Z,47.86
2024-01-18T08:05:38.996Z,51.08
2024-01-18T08:06:39.043Z,51.40
2024-01-18T08:07:38.918Z,43.18
2024-01-18T08:08:38.886Z,51.08
2024-01-18T08:09:38.944Z,45.92
2024-01-18T08:10:38.880Z,53.50
2024-01-18T08:11:38.927Z,51.88
2024-01-18T08:12:39.121Z,48.82
2024-01-18T08:13:38.866Z,40.61
2024-01-18T08:14:38.992Z,52.53
2024-01-18T08:15:38.898Z,45.28
2024-01-18T08:16:38.809Z,51.56
2024-01-18T08:17:38.903Z,48.98
2024-01-18T08:18:38.942Z,49.79
2024-01-18T08:19:38.874Z,50.76
2024-01-18T08:20:38.783Z,52.53
2024-01-18T08:21:38.807Z,45.92
2024-01-18T08:22:38.745Z,44.63
2024-01-18T08:23:38.808Z,56.07
2024-01-18T08:24:38.770Z,47.53
2024-01-18T08:25:38.708Z,47.86
2024-01-18T08:26:41.508Z,43.34
2024-01-18T08:27:38.720Z,42.22
2024-01-18T08:28:38.715Z,41.57
2024-01-18T08:29:38.683Z,43.67
2024-01-18T08:30:38.750Z,52.05
2024-01-18T08:31:38.695Z,58.65
2024-01-18T08:32:38.748Z,48.82
2024-01-18T08:33:38.668Z,44.96
2024-01-18T08:34:38.637Z,46.41
2024-01-18T08:35:38.615Z,45.28
2024-01-18T08:36:38.723Z,45.76
2024-01-18T08:37:38.754Z,46.89
2024-01-18T08:38:38.599Z,47.70
2024-01-18T08:39:38.605Z,46.25
2024-01-18T08:40:38.581Z,56.88
2024-01-18T08:42:41.201Z,50.76
2024-01-18T08:43:38.553Z,42.22
2024-01-18T08:44:38.544Z,50.76
2024-01-18T08:45:38.543Z,54.14
2024-01-18T08:46:38.513Z,46.08
2024-01-18T08:47:38.523Z,47.70
2024-01-18T08:48:38.542Z,50.43
2024-01-18T08:49:38.496Z,48.66
2024-01-18T08:50:38.792Z,47.05
2024-01-18T08:51:38.551Z,51.40
2024-01-18T08:52:38.451Z,47.05
2024-01-18T08:53:38.427Z,43.99
2024-01-18T08:54:38.425Z,50.76
2024-01-18T08:56:01.323Z,51.56
2024-01-18T08:56:38.530Z,48.18
2024-01-18T08:57:56.615Z,51.56
2024-01-18T08:58:38.960Z,44.63
2024-01-18T08:59:38.431Z,58.17
2024-01-18T09:00:48.941Z,39.16
2024-01-18T09:01:44.137Z,47.70
2024-01-18T09:02:38.344Z,41.41
2024-01-18T09:03:38.448Z,46.89
2024-01-18T09:04:38.338Z,47.53
2024-01-18T09:05:38.301Z,49.47
2024-01-18T09:06:39.175Z,45.92
2024-01-18T09:07:38.510Z,46.08
2024-01-18T09:08:38.294Z,42.22
2024-01-18T09:09:38.302Z,40.93
2024-01-18T09:10:38.345Z,39.64
2024-01-18T09:11:38.303Z,40.93
2024-01-18T09:12:38.414Z,64.45
2024-01-18T09:13:38.266Z,55.91
2024-01-18T09:14:38.280Z,49.63
2024-01-18T09:15:38.341Z,52.05
2024-01-18T09:16:38.261Z,41.73
2024-01-18T09:17:38.245Z,51.08
2024-01-18T09:18:38.220Z,46.25
2024-01-18T09:19:38.332Z,67.35
2024-01-18T09:20:38.207Z,70.42
2024-01-18T09:21:38.193Z,48.82
2024-01-18T09:22:38.130Z,44.47
2024-01-18T09:23:38.116Z,49.95
2024-01-18T09:24:38.143Z,58.01
2024-01-18T09:25:38.115Z,54.30
2024-01-18T09:26:38.096Z,43.02
2024-01-18T09:27:38.119Z,45.76
2024-01-18T09:28:38.069Z,43.34
2024-01-18T09:29:38.065Z,61.71
2024-01-18T09:30:41.139Z,48.02
2024-01-18T09:31:42.789Z,50.76
2024-01-18T09:32:38.077Z,53.01
2024-01-18T09:33:38.199Z,58.65
2024-01-18T09:34:38.028Z,64.29
2024-01-18T09:35:38.121Z,49.15
2024-01-18T09:36:38.130Z,48.98
2024-01-18T09:37:37.975Z,55.91
2024-01-18T09:38:37.988Z,51.56
2024-01-18T09:39:38.025Z,44.79
2024-01-18T09:40:37.984Z,60.75
2024-01-18T09:41:37.936Z,59.46
2024-01-18T09:42:38.025Z,43.34
2024-01-18T09:43:37.953Z,52.69
2024-01-18T09:44:38.029Z,41.25
2024-01-18T09:45:38.057Z,59.94
2024-01-18T09:46:37.880Z,50.60
2024-01-18T09:47:37.908Z,44.79
2024-01-18T09:48:37.926Z,42.22
2024-01-18T09:49:37.945Z,43.51
2024-01-18T09:50:37.921Z,57.20
2024-01-18T09:51:37.905Z,53.66
2024-01-18T09:52:37.817Z,56.07
2024-01-18T09:53:37.819Z,54.46
2024-01-18T09:54:41.108Z,40.12
2024-01-18T09:55:47.100Z,48.50
2024-01-18T09:56:37.775Z,47.70
2024-01-18T09:57:37.786Z,53.17
2024-01-18T09:58:37.761Z,45.76
2024-01-18T09:59:37.750Z,53.01
2024-01-18T10:00:37.874Z,55.27
2024-01-18T10:01:37.722Z,55.59
2024-01-18T10:02:37.721Z,56.40
2024-01-18T10:03:37.879Z,66.06
2024-01-18T10:07:05.295Z,43.67
2024-01-18T10:08:03.936Z,39.16
2024-01-18T10:09:24.908Z,54.79
2024-01-18T10:10:03.790Z,54.79
2024-01-18T10:11:03.627Z,51.56
2024-01-18T10:12:03.615Z,57.69
2024-01-18T10:13:03.683Z,49.95
2024-01-18T10:14:03.601Z,51.40
2024-01-18T10:15:03.588Z,49.79
2024-01-18T10:16:03.583Z,62.68
2024-01-18T10:17:03.605Z,51.56
2024-01-18T10:18:03.599Z,53.33
2024-01-18T10:19:03.723Z,57.69
2024-01-18T10:20:03.622Z,55.59
2024-01-18T10:21:03.547Z,54.14
2024-01-18T10:22:03.546Z,56.88
2024-01-18T10:23:04.399Z,59.46
2024-01-18T10:24:03.539Z,59.30
2024-01-18T10:25:03.608Z,46.73
2024-01-18T10:26:03.507Z,53.17
2024-01-18T10:27:03.484Z,62.36
2024-01-18T10:28:03.459Z,52.05
2024-01-18T10:29:04.693Z,50.43
2024-01-18T10:32:36.987Z,51.72
2024-01-18T10:33:37.042Z,54.95
2024-01-18T10:34:37.041Z,58.49
2024-01-18T10:35:48.211Z,48.18
2024-01-18T10:36:37.044Z,63.16
2024-01-18T10:37:36.962Z,46.73
2024-01-18T10:38:38.577Z,52.53
2024-01-18T10:39:36.988Z,40.61
2024-01-18T10:40:36.963Z,61.07
2024-01-18T10:41:36.985Z,46.41
2024-01-18T10:42:36.900Z,40.77
2024-01-18T10:43:36.906Z,40.93
2024-01-18T10:44:36.889Z,54.46
2024-01-18T10:45:37.062Z,50.60
2024-01-18T10:46:36.945Z,42.06
2024-01-18T10:47:36.994Z,53.50
2024-01-18T10:48:36.899Z,50.27
2024-01-18T10:49:36.926Z,56.07
2024-01-18T10:50:37.028Z,58.65
2024-01-18T10:51:36.940Z,43.67
2024-01-18T10:52:36.845Z,48.02
2024-01-18T10:53:36.826Z,55.11
2024-01-18T10:54:38.611Z,52.05
2024-01-18T10:55:37.282Z,53.50
2024-01-18T10:56:36.815Z,41.57
2024-01-18T10:57:36.843Z,40.12
2024-01-18T10:58:36.779Z,44.79
2024-01-18T10:59:36.727Z,57.20
2024-01-18T11:00:36.881Z,54.79
2024-01-18T11:01:36.773Z,57.20
2024-01-18T11:02:36.726Z,58.81
2024-01-18T11:03:36.775Z,55.59
2024-01-18T11:04:36.901Z,55.27
2024-01-18T11:05:36.691Z,55.43
2024-01-18T11:06:36.930Z,52.69
2024-01-18T11:07:36.720Z,56.56
2024-01-18T11:08:36.663Z,53.98
2024-01-18T11:09:36.744Z,54.14
2024-01-18T11:10:36.646Z,59.30
2024-01-18T11:11:36.632Z,58.97
2024-01-18T11:12:36.658Z,49.47
2024-01-18T11:13:36.684Z,53.01
2024-01-18T11:14:36.648Z,62.20
2024-01-18T11:15:36.721Z,55.11
2024-01-18T11:16:36.631Z,61.71
2024-01-18T11:17:36.590Z,53.17
2024-01-18T11:18:36.713Z,55.75
2024-01-18T11:19:36.581Z,55.75
2024-01-18T11:20:36.626Z,56.07
2024-01-18T11:21:36.615Z,55.59
2024-01-18T11:22:36.534Z,53.50
2024-01-18T11:23:36.579Z,61.55
2024-01-18T11:24:36.526Z,51.72
2024-01-18T11:25:36.484Z,54.95
2024-01-18T11:26:36.480Z,58.49
2024-01-18T11:27:36.554Z,46.57
2024-01-18T11:28:40.769Z,62.68
2024-01-18T11:29:36.498Z,50.60
2024-01-18T11:30:37.009Z,62.04
2024-01-18T11:31:36.469Z,53.66
2024-01-18T11:32:36.485Z,47.53
2024-01-18T11:33:36.401Z,51.88
2024-01-18T11:34:36.378Z,58.17
2024-01-18T11:35:36.419Z,52.53
2024-01-18T11:36:36.371Z,54.95
2024-01-18T11:37:36.345Z,57.04
2024-01-18T11:38:36.286Z,66.23
2024-01-18T11:39:36.350Z,54.14
2024-01-18T11:40:36.289Z,58.49
2024-01-18T11:41:36.253Z,54.79
2024-01-18T11:42:36.335Z,39.96
2024-01-18T11:43:36.258Z,63.33
2024-01-18T11:44:36.259Z,55.27
2024-01-18T11:45:38.848Z,63.33
2024-01-18T11:46:36.250Z,58.65
2024-01-18T11:47:36.244Z,59.62
2024-01-18T11:48:36.217Z,48.98
2024-01-18T11:49:36.204Z,49.95
2024-01-18T11:50:36.176Z,42.70
2024-01-18T11:51:36.289Z,58.17
2024-01-18T11:52:36.161Z,56.07
2024-01-18T11:53:36.135Z,54.62
2024-01-18T11:54:36.156Z,55.27
2024-01-18T11:55:36.116Z,56.88
2024-01-18T11:56:36.191Z,38.83
2024-01-18T11:57:36.173Z,55.11
2024-01-18T11:58:36.209Z,61.55
2024-01-18T11:59:36.204Z,56.72
2024-01-18T12:00:36.729Z,57.52
2024-01-18T12:01:36.286Z,56.88
2024-01-18T12:02:36.107Z,56.88
2024-01-18T12:03:36.176Z,52.85
2024-01-18T12:04:36.240Z,61.55
2024-01-18T12:05:36.069Z,56.40
2024-01-18T12:06:36.173Z,60.91
2024-01-18T12:07:36.616Z,60.75
2024-01-18T12:08:36.062Z,54.14
2024-01-18T12:09:36.115Z,60.59
2024-01-18T12:10:36.105Z,56.24
2024-01-18T12:11:36.245Z,53.33
2024-01-18T12:12:36.119Z,59.78
2024-01-18T12:13:36.015Z,51.72
2024-01-18T12:14:36.001Z,58.17
2024-01-18T12:15:36.070Z,57.69
2024-01-18T12:16:35.947Z,41.41
2024-01-18T12:17:35.958Z,58.33
2024-01-18T12:18:35.963Z,50.27
2024-01-18T12:19:35.979Z,46.57
2024-01-18T12:20:35.929Z,60.59
2024-01-18T12:21:36.048Z,61.39
2024-01-18T12:22:35.885Z,68.64
2024-01-18T12:23:35.817Z,55.27
2024-01-18T12:24:35.867Z,59.14
2024-01-18T12:25:35.798Z,59.30
2024-01-18T12:26:35.785Z,60.10
2024-01-18T12:27:35.800Z,59.46
2024-01-18T12:28:35.756Z,55.59
2024-01-18T12:29:35.763Z,55.43
2024-01-18T12:30:36.511Z,55.91
2024-01-18T12:31:35.726Z,59.46
2024-01-18T12:32:35.781Z,58.01
2024-01-18T12:33:35.814Z,43.51
2024-01-18T12:34:35.795Z,50.60
2024-01-18T12:35:35.681Z,57.85
2024-01-18T12:36:35.813Z,61.07
2024-01-18T12:37:35.693Z,55.75
2024-01-18T12:38:35.650Z,51.08
2024-01-18T12:39:35.765Z,56.40
2024-01-18T12:40:35.633Z,56.56
2024-01-18T12:41:35.614Z,54.46
2024-01-18T12:42:35.669Z,48.82
2024-01-18T12:43:35.616Z,50.43
2024-01-18T12:44:35.597Z,56.24
2024-01-18T12:45:35.646Z,56.07
2024-01-18T12:46:35.565Z,60.75
2024-01-18T12:47:35.589Z,49.31
2024-01-18T12:48:35.652Z,50.43
2024-01-18T12:49:36.127Z,58.65
2024-01-18T12:50:35.527Z,53.01
2024-01-18T12:51:35.554Z,49.47
2024-01-18T12:52:35.503Z,52.37
2024-01-18T12:53:35.513Z,53.82
2024-01-18T12:54:35.511Z,61.55
2024-01-18T12:55:35.471Z,47.21
2024-01-18T12:56:35.471Z,60.26
2024-01-18T12:57:35.882Z,57.20
2024-01-18T12:58:35.468Z,58.17